Observation data for Dimmitt on 05/25/2019      Previous  Date  Next       Current Mesonet Observations  Soil Data  Daily Summary Page  Observations in Plain Language
KDMS 250500Z 16014KT 19/13 A2997 RMK A01 T01890125  RH  069%=      5-min Rain = 0
KDMS 250505Z 16014G19KT 19/12 A2997 RMK A01 T01890124  RH  069%=      5-min Rain = 0
KDMS 250510Z 17013KT 19/13 A2997 RMK A01 T01870126  RH  070%=      5-min Rain = 0
KDMS 250515Z 16015KT 19/13 A2997 RMK A01 T01870129  RH  072%=      5-min Rain = 0
KDMS 250520Z 16014KT 19/13 A2997 RMK A01 T01870131  RH  073%=      5-min Rain = 0
KDMS 250525Z 16014KT 19/13 A2997 RMK A01 T01860134  RH  074%=      5-min Rain = 0
KDMS 250530Z 16014KT 19/14 A2997 RMK A01 T01860136  RH  076%=      5-min Rain = 0
KDMS 250535Z 16015KT 19/14 A2997 RMK A01 T01870139  RH  077%=      5-min Rain = 0
KDMS 250540Z 16016KT 19/14 A2998 RMK A01 T01880142  RH  078%=      5-min Rain = 0
KDMS 250545Z 16015KT 19/15 A2998 RMK A01 T01890146  RH  080%=      5-min Rain = 0
KDMS 250550Z 16015KT 19/15 A2998 RMK A01 T01890149  RH  081%=      5-min Rain = 0
KDMS 250555Z 16015KT 19/15 A2998 RMK A01 T01910153  RH  082%=      5-min Rain = 0
KDMS 250600Z 17016KT 19/16 A2998 RMK A01 T01920156  RH  083%=      5-min Rain = 0
KDMS 250605Z 17015G20KT 19/16 A2998 RMK A01 T01920157  RH  084%=      5-min Rain = 0
KDMS 250610Z 17016KT 19/16 A2998 RMK A01 T01920158  RH  084%=      5-min Rain = 0
KDMS 250615Z 16015G20KT 19/16 A2998 RMK A01 T01910158  RH  085%=      5-min Rain = 0
KDMS 250620Z 16015KT 19/16 A2999 RMK A01 T01910159  RH  086%=      5-min Rain = 0
KDMS 250625Z 16014G19KT 19/16 A2999 RMK A01 T01900159  RH  086%=      5-min Rain = 0
KDMS 250630Z 16013G18KT 19/16 A2999 RMK A01 T01910160  RH  086%=      5-min Rain = 0
KDMS 250635Z 16013G19KT 19/16 A2999 RMK A01 T01910160  RH  086%=      5-min Rain = 0
KDMS 250640Z 16015KT 19/16 A2999 RMK A01 T01910160  RH  086%=      5-min Rain = 0
KDMS 250645Z 16015KT 19/16 A2998 RMK A01 T01900160  RH  086%=      5-min Rain = 0
KDMS 250650Z 16013KT 19/16 A2998 RMK A01 T01900160  RH  087%=      5-min Rain = 0
KDMS 250655Z 16013KT 19/16 A2998 RMK A01 T01890160  RH  087%=      5-min Rain = 0
KDMS 250700Z 16015KT 19/16 A2998 RMK A01 T01890160  RH  088%=      5-min Rain = 0
KDMS 250705Z 16014G19KT 19/16 A2998 RMK A01 T01880160  RH  088%=      5-min Rain = 0
KDMS 250710Z 16015KT 19/16 A2998 RMK A01 T01880161  RH  088%=      5-min Rain = 0
KDMS 250715Z 16013G18KT 19/16 A2998 RMK A01 T01880161  RH  089%=      5-min Rain = 0
KDMS 250720Z 16012KT 19/16 A2998 RMK A01 T01880161  RH  089%=      5-min Rain = 0
KDMS 250725Z 16012KT 19/16 A2998 RMK A01 T01880162  RH  089%=      5-min Rain = 0
KDMS 250730Z 16012KT 19/16 A2998 RMK A01 T01880162  RH  089%=      5-min Rain = 0
KDMS 250735Z 16013KT 19/16 A2998 RMK A01 T01870162  RH  090%=      5-min Rain = 0
KDMS 250740Z 17013KT 19/16 A2998 RMK A01 T01870162  RH  090%=      5-min Rain = 0
KDMS 250745Z 16012KT 19/16 A2998 RMK A01 T01860162  RH  090%=      5-min Rain = 0
KDMS 250750Z 16012KT 19/16 A2998 RMK A01 T01860162  RH  090%=      5-min Rain = 0
KDMS 250755Z 16012KT 19/16 A2998 RMK A01 T01850162  RH  091%=      5-min Rain = 0
KDMS 250800Z 16011G16KT 19/16 A2998 RMK A01 T01850162  RH  091%=      5-min Rain = 0
KDMS 250805Z 16013KT 18/16 A2997 RMK A01 T01840162  RH  092%=      5-min Rain = 0
KDMS 250810Z 16012KT 18/16 A2998 RMK A01 T01830162  RH  092%=      5-min Rain = 0
KDMS 250815Z 16013KT 18/16 A2997 RMK A01 T01820162  RH  093%=      5-min Rain = 0
KDMS 250820Z 16012KT 18/16 A2997 RMK A01 T01810162  RH  093%=      5-min Rain = 0
KDMS 250825Z 16013KT 18/16 A2998 RMK A01 T01810162  RH  093%=      5-min Rain = 0
KDMS 250830Z 16011KT 18/16 A2998 RMK A01 T01800162  RH  093%=      5-min Rain = 0
KDMS 250835Z 16012KT 18/16 A2998 RMK A01 T01800161  RH  093%=      5-min Rain = 0
KDMS 250840Z 16012G17KT 18/16 A2998 RMK A01 T01790161  RH  093%=      5-min Rain = 0
KDMS 250845Z 16014KT 18/16 A2997 RMK A01 T01780161  RH  094%=      5-min Rain = 0
KDMS 250850Z 17013KT 18/16 A2997 RMK A01 T01780160  RH  094%=      5-min Rain = 0
KDMS 250855Z 17013KT 18/16 A2997 RMK A01 T01780160  RH  094%=      5-min Rain = 0
KDMS 250900Z 16012KT 18/16 A2997 RMK A01 T01770160  RH  094%=      5-min Rain = 0
KDMS 250905Z 16011KT 18/16 A2997 RMK A01 T01770160  RH  094%=      5-min Rain = 0
KDMS 250910Z 16011KT 18/16 A2997 RMK A01 T01770160  RH  094%=      5-min Rain = 0
KDMS 250915Z 16012KT 18/16 A2997 RMK A01 T01770160  RH  094%=      5-min Rain = 0
KDMS 250920Z 16010KT 18/16 A2997 RMK A01 T01760159  RH  094%=      5-min Rain = 0
KDMS 250925Z 16011KT 18/16 A2997 RMK A01 T01760160  RH  094%=      5-min Rain = 0
KDMS 250930Z 16012KT 18/16 A2997 RMK A01 T01770160  RH  094%=      5-min Rain = 0
KDMS 250935Z 16011KT 18/16 A2997 RMK A01 T01770160  RH  094%=      5-min Rain = 0
KDMS 250940Z 16012KT 18/16 A2997 RMK A01 T01770160  RH  094%=      5-min Rain = 0
KDMS 250945Z 17012KT 18/16 A2997 RMK A01 T01770160  RH  094%=      5-min Rain = 0
KDMS 250950Z 16011KT 18/16 A2997 RMK A01 T01770160  RH  094%=      5-min Rain = 0
KDMS 250955Z 16013KT 18/16 A2997 RMK A01 T01770160  RH  094%=      5-min Rain = 0
KDMS 251000Z 16011KT 18/16 A2998 RMK A01 T01770160  RH  095%=      5-min Rain = 0
KDMS 251005Z 16012KT 18/16 A2997 RMK A01 T01770161  RH  095%=      5-min Rain = 0
KDMS 251010Z 16013KT 18/16 A2998 RMK A01 T01770161  RH  095%=      5-min Rain = 0
KDMS 251015Z 16012KT 18/16 A2998 RMK A01 T01770161  RH  095%=      5-min Rain = 0
KDMS 251020Z 16012KT 18/16 A2998 RMK A01 T01780162  RH  095%=      5-min Rain = 0
KDMS 251025Z 16012KT 18/16 A2998 RMK A01 T01780162  RH  095%=      5-min Rain = 0
KDMS 251030Z 17011KT 18/16 A2998 RMK A01 T01780162  RH  095%=      5-min Rain = 0
KDMS 251035Z 16011KT 18/16 A2998 RMK A01 T01780163  RH  095%=      5-min Rain = 0
KDMS 251040Z 16011KT 18/16 A2998 RMK A01 T01790163  RH  095%=      5-min Rain = 0
KDMS 251045Z 16012KT 18/16 A2998 RMK A01 T01790163  RH  095%=      5-min Rain = 0
KDMS 251050Z 16012KT 18/16 A2998 RMK A01 T01790163  RH  095%=      5-min Rain = 0
KDMS 251055Z 16012KT 18/16 A2999 RMK A01 T01790163  RH  095%=      5-min Rain = 0
KDMS 251100Z 16013KT 18/16 A2999 RMK A01 T01800164  RH  095%=      5-min Rain = 0
KDMS 251105Z 17013G18KT 18/16 A2999 RMK A01 T01800164  RH  095%=      5-min Rain = 0
KDMS 251110Z 18011KT 18/17 A2999 RMK A01 T01810165  RH  095%=      5-min Rain = 0
KDMS 251115Z 17013KT 18/17 A2999 RMK A01 T01820165  RH  095%=      5-min Rain = 0
KDMS 251120Z 17013KT 18/17 A2999 RMK A01 T01820165  RH  095%=      5-min Rain = 0
KDMS 251125Z 17012G17KT 18/17 A2999 RMK A01 T01820166  RH  095%=      5-min Rain = 0
KDMS 251130Z 17012KT 18/17 A2999 RMK A01 T01830167  RH  095%=      5-min Rain = 0
KDMS 251135Z 17013KT 18/17 A2999 RMK A01 T01830167  RH  095%=      5-min Rain = 0
KDMS 251140Z 17014KT 18/17 A30 RMK A01 T01830168  RH  095%=      5-min Rain = 0
KDMS 251145Z 17013KT 18/17 A30 RMK A01 T01830168  RH  096%=      5-min Rain = 0
KDMS 251150Z 17013KT 18/17 A30 RMK A01 T01830169  RH  096%=      5-min Rain = 0
KDMS 251155Z 17013KT 18/17 A30 RMK A01 T01840169  RH  096%=      5-min Rain = 0
KDMS 251200Z 16013KT 18/17 A30 RMK A01 T01840170  RH  096%=      5-min Rain = 0
KDMS 251205Z 17012G17KT 18/17 A30 RMK A01 T01840170  RH  096%=      5-min Rain = 0
KDMS 251210Z 17012KT 19/17 A30 RMK A01 T01850171  RH  096%=      5-min Rain = 0
KDMS 251215Z 17014KT 19/17 A30 RMK A01 T01850171  RH  096%=      5-min Rain = 0
KDMS 251220Z 17012KT 19/17 A30 RMK A01 T01860171  RH  096%=      5-min Rain = 0
KDMS 251225Z 17013KT 19/17 A30 RMK A01 T01860171  RH  096%=      5-min Rain = 0
KDMS 251230Z 17013G18KT 19/17 A30 RMK A01 T01860172  RH  096%=      5-min Rain = 0
KDMS 251235Z 17012KT 19/17 A3001 RMK A01 T01860172  RH  096%=      5-min Rain = 0
KDMS 251240Z 17012KT 19/17 A3001 RMK A01 T01870173  RH  096%=      5-min Rain = 0
KDMS 251245Z 17011KT 19/17 A3001 RMK A01 T01880173  RH  096%=      5-min Rain = 0
KDMS 251250Z 17012G17KT 19/17 A3001 RMK A01 T01890174  RH  095%=      5-min Rain = 0
KDMS 251255Z 17014KT 19/17 A3002 RMK A01 T01900174  RH  095%=      5-min Rain = 0
KDMS 251300Z 17014KT 19/17 A3002 RMK A01 T01900174  RH  095%=      5-min Rain = 0
KDMS 251305Z 17013KT 19/18 A3002 RMK A01 T01900175  RH  095%=      5-min Rain = 0
KDMS 251310Z 17013G19KT 19/18 A3002 RMK A01 T01910175  RH  095%=      5-min Rain = 0
KDMS 251315Z 17015KT 19/18 A3002 RMK A01 T01920175  RH  095%=      5-min Rain = 0
KDMS 251320Z 17015KT 19/18 A3002 RMK A01 T01920175  RH  095%=      5-min Rain = 0
KDMS 251325Z 17013KT 19/18 A3003 RMK A01 T01920175  RH  095%=      5-min Rain = 0
KDMS 251330Z 17013G18KT 19/18 A3003 RMK A01 T01930175  RH  095%=      5-min Rain = 0
KDMS 251335Z 17014KT 19/18 A3003 RMK A01 T01930176  RH  095%=      5-min Rain = 0
KDMS 251340Z 17014KT 19/18 A3003 RMK A01 T01940176  RH  095%=      5-min Rain = 0
KDMS 251345Z 17014KT 20/18 A3003 RMK A01 T01950177  RH  094%=      5-min Rain = 0
KDMS 251350Z 17014KT 20/18 A3003 RMK A01 T01950176  RH  094%=      5-min Rain = 0
KDMS 251355Z 17014KT 20/18 A3003 RMK A01 T01950176  RH  094%=      5-min Rain = 0
KDMS 251400Z 17013G18KT 20/18 A3003 RMK A01 T01970177  RH  093%=      5-min Rain = 0
KDMS 251405Z 17013KT 20/18 A3003 RMK A01 T01990177  RH  092%=      5-min Rain = 0
KDMS 251410Z 17014KT 20/18 A3003 RMK A01 T01990176  RH  091%=      5-min Rain = 0
KDMS 251415Z 17013KT 20/18 A3003 RMK A01 T01980176  RH  092%=      5-min Rain = 0
KDMS 251420Z 17013KT 20/18 A3003 RMK A01 T01990176  RH  091%=      5-min Rain = 0
KDMS 251425Z 17014G19KT 20/18 A3004 RMK A01 T02000176  RH  091%=      5-min Rain = 0
KDMS 251430Z 18013KT 20/18 A3004 RMK A01 T02010177  RH  090%=      5-min Rain = 0
KDMS 251435Z 18014KT 20/18 A3004 RMK A01 T02030177  RH  090%=      5-min Rain = 0
KDMS 251440Z 18013KT 20/18 A3004 RMK A01 T02040177  RH  089%=      5-min Rain = 0
KDMS 251445Z 18014KT 21/18 A3004 RMK A01 T02060177  RH  088%=      5-min Rain = 0
KDMS 251450Z 18014KT 21/18 A3004 RMK A01 T02070177  RH  087%=      5-min Rain = 0
KDMS 251455Z 18015G20KT 21/18 A3004 RMK A01 T02080177  RH  087%=      5-min Rain = 0
KDMS 251500Z 18015KT 21/18 A3004 RMK A01 T02090177  RH  086%=      5-min Rain = 0
KDMS 251505Z 18016KT 21/18 A3004 RMK A01 T02100177  RH  086%=      5-min Rain = 0
KDMS 251510Z 17015KT 21/18 A3004 RMK A01 T02120177  RH  085%=      5-min Rain = 0
KDMS 251515Z 17015G20KT 22/18 A3004 RMK A01 T02150179  RH  084%=      5-min Rain = 0
KDMS 251520Z 17015KT 22/18 A3003 RMK A01 T02160179  RH  084%=      5-min Rain = 0
KDMS 251525Z 17015KT 22/18 A3003 RMK A01 T02170179  RH  083%=      5-min Rain = 0
KDMS 251530Z 17016KT 22/18 A3003 RMK A01 T02160179  RH  084%=      5-min Rain = 0
KDMS 251535Z 17016KT 22/18 A3003 RMK A01 T02160178  RH  084%=      5-min Rain = 0
KDMS 251540Z 18015G20KT 22/18 A3003 RMK A01 T02170178  RH  083%=      5-min Rain = 0
KDMS 251545Z 17017KT 22/18 A3003 RMK A01 T02160178  RH  084%=      5-min Rain = 0
KDMS 251550Z 17014KT 22/18 A3003 RMK A01 T02150179  RH  084%=      5-min Rain = 0
KDMS 251555Z 18015KT 22/18 A3003 RMK A01 T02170179  RH  083%=      5-min Rain = 0
KDMS 251600Z 17015G20KT 22/18 A3003 RMK A01 T02170179  RH  083%=      5-min Rain = 0
KDMS 251605Z 18015KT 22/18 A3003 RMK A01 T02180179  RH  083%=      5-min Rain = 0
KDMS 251610Z 18015KT 22/18 A3003 RMK A01 T02230180  RH  081%=      5-min Rain = 0
KDMS 251615Z 17015KT 22/18 A3003 RMK A01 T02240180  RH  080%=      5-min Rain = 0
KDMS 251620Z 18016KT 23/18 A3003 RMK A01 T02260179  RH  079%=      5-min Rain = 0
KDMS 251625Z 19016KT 23/18 A3003 RMK A01 T02260179  RH  079%=      5-min Rain = 0
KDMS 251630Z 18017KT 22/18 A3003 RMK A01 T02240178  RH  079%=      5-min Rain = 0
KDMS 251635Z 18016KT 23/18 A3003 RMK A01 T02280179  RH  078%=      5-min Rain = 0
KDMS 251640Z 18017KT 23/18 A3003 RMK A01 T02310179  RH  076%=      5-min Rain = 0
KDMS 251645Z 19017G22KT 23/18 A3003 RMK A01 T02340180  RH  075%=      5-min Rain = 0
KDMS 251650Z 19019G24KT 23/18 A3003 RMK A01 T02330177  RH  075%=      5-min Rain = 0
KDMS 251655Z 19019G25KT 23/18 A3003 RMK A01 T02340177  RH  074%=      5-min Rain = 0
KDMS 251700Z 18019G24KT 24/18 A3003 RMK A01 T02370176  RH  073%=      5-min Rain = 0
KDMS 251705Z 18019G24KT 24/18 A3003 RMK A01 T02370177  RH  073%=      5-min Rain = 0
KDMS 251710Z 17019KT 24/18 A3003 RMK A01 T02400177  RH  071%=      5-min Rain = 0
KDMS 251715Z 17018G23KT 24/18 A3003 RMK A01 T02420178  RH  071%=      5-min Rain = 0
KDMS 251720Z 17020KT 24/18 A3003 RMK A01 T02420177  RH  070%=      5-min Rain = 0
KDMS 251725Z 17019G25KT 24/18 A3002 RMK A01 T02440178  RH  070%=      5-min Rain = 0
KDMS 251730Z 16020G25KT 25/18 A3002 RMK A01 T02450178  RH  070%=      5-min Rain = 0
KDMS 251735Z 16021G26KT 24/18 A3002 RMK A01 T02430180  RH  072%=      5-min Rain = 0
KDMS 251740Z 16019G24KT 25/18 A3002 RMK A01 T02480182  RH  070%=      5-min Rain = 0
KDMS 251745Z 17018KT 25/18 A3001 RMK A01 T02470181  RH  071%=      5-min Rain = 0
KDMS 251750Z 17019G26KT 25/18 A3001 RMK A01 T02450180  RH  071%=      5-min Rain = 0
KDMS 251755Z 16018G23KT 25/18 A3001 RMK A01 T02480181  RH  070%=      5-min Rain = 0
KDMS 251800Z 16018KT 24/18 A30 RMK A01 T02430178  RH  071%=      5-min Rain = 0
KDMS 251805Z 16021KT 24/18 A30 RMK A01 T02380177  RH  072%=      5-min Rain = 0
KDMS 251810Z 16018KT 24/18 A3001 RMK A01 T02360178  RH  074%=      5-min Rain = 0
KDMS 251815Z 16021KT 23/18 A3001 RMK A01 T02320176  RH  075%=      5-min Rain = 0
KDMS 251820Z 16019G24KT 23/18 A3001 RMK A01 T02270177  RH  077%=      5-min Rain = 0
KDMS 251825Z 16021KT 22/18 A3001 RMK A01 T02230176  RH  079%=      5-min Rain = 0
KDMS 251830Z 15018G24KT 22/18 A30 RMK A01 T02170182  RH  084%=      5-min Rain = 0
KDMS 251835Z 15019G26KT 21/18 A2999 RMK A01 T02130184  RH  088%=      5-min Rain = 0
KDMS 251840Z 14021G26KT 21/18 A2998 RMK A01 T02090181  RH  088%=      5-min Rain = 0
KDMS 251845Z 14020G26KT 21/18 A2997 RMK A01 T02070181  RH  090%=      5-min Rain = 0
KDMS 251850Z 14017G22KT 21/18 A2997 RMK A01 T02050181  RH  091%=      5-min Rain = 0
KDMS 251855Z 14017G23KT 20/18 A2998 RMK A01 T02040181  RH  091%=      5-min Rain = 0
KDMS 251900Z 14013G19KT 20/18 A2999 RMK A01 T02040180  RH  091%=      5-min Rain = 0
KDMS 251905Z 16012KT 20/18 A30 RMK A01 T02040182  RH  092%=      5-min Rain = 0
KDMS 251910Z 15014G20KT 20/18 A30 RMK A01 T02030182  RH  093%=      5-min Rain = 0
KDMS 251915Z 15016G21KT 20/18 A30 RMK A01 T02020183  RH  094%=      5-min Rain = 0
KDMS 251920Z 14016G21KT 20/18 A2999 RMK A01 T02020183  RH  094%=      5-min Rain = 0
KDMS 251925Z 14018G26KT 20/18 A2996 RMK A01 T02020184  RH  094%=      5-min Rain = 0
KDMS 251930Z 13019G27KT 20/18 A2995 RMK A01 T02030184  RH  094%=      5-min Rain = 0
KDMS 251935Z 13019G25KT 20/19 A2994 RMK A01 T02040186  RH  094%=      5-min Rain = 0
KDMS 251940Z 13020G27KT 21/19 A2993 RMK A01 T02050186  RH  094%=      5-min Rain = 0
KDMS 251945Z 13021G29KT 21/19 A2993 RMK A01 T02060186  RH  093%=      5-min Rain = 0
KDMS 251950Z 14024G30KT 21/19 A2996 RMK A01 T02080187  RH  093%=      5-min Rain = 0
KDMS 251955Z 15025G32KT 21/19 A2997 RMK A01 T02120189  RH  091%=      5-min Rain = 0
KDMS 252000Z 14020KT 21/19 A2996 RMK A01 T02120187  RH  091%=      5-min Rain = 0
KDMS 252005Z 14016G23KT 21/19 A2996 RMK A01 T02130187  RH  090%=      5-min Rain = 0
KDMS 252010Z 14018G28KT 21/18 A2997 RMK A01 T02090183  RH  090%=      5-min Rain = 0
KDMS 252015Z 15020G28KT 21/18 A2996 RMK A01 T02120178  RH  085%=      5-min Rain = 0
KDMS 252020Z 15022G28KT 21/16 A2995 RMK A01 T02060160  RH  078%=      5-min Rain = 0
KDMS 252025Z 15023G31KT 20/15 A2996 RMK A01 T02040146  RH  072%=      5-min Rain = 0
KDMS 252030Z 15019G25KT 21/14 A2996 RMK A01 T02070141  RH  068%=      5-min Rain = 0
KDMS 252035Z 15018KT 21/13 A2997 RMK A01 T02080133  RH  064%=      5-min Rain = 0
KDMS 252040Z 15013G18KT 19/15 A2998 RMK A01 T01940145  RH  077%=      5-min Rain = 0.01
KDMS 252045Z 14015KT 18/15 A2997 RMK A01 T01830145  RH  082%=      5-min Rain = 0
KDMS 252050Z 14012G17KT 18/15 A2997 RMK A01 T01810146  RH  084%=      5-min Rain = 0
KDMS 252055Z 14012KT 18/15 A2997 RMK A01 T01820150  RH  085%=      5-min Rain = 0
KDMS 252100Z 14012KT 18/15 A2997 RMK A01 T01800148  RH  086%=      5-min Rain = 0
KDMS 252105Z 14014KT 19/15 A2996 RMK A01 T01910153  RH  082%=      5-min Rain = 0
KDMS 252110Z 13014KT 20/16 A2996 RMK A01 T02030157  RH  078%=      5-min Rain = 0
KDMS 252115Z 14013KT 20/15 A2996 RMK A01 T02000154  RH  078%=      5-min Rain = 0
KDMS 252120Z 15012KT 20/15 A2996 RMK A01 T02010154  RH  078%=      5-min Rain = 0
KDMS 252125Z 14010G15KT 21/16 A2996 RMK A01 T02060158  RH  078%=      5-min Rain = 0
KDMS 252130Z 14011KT 22/16 A2995 RMK A01 T02180161  RH  074%=      5-min Rain = 0
KDMS 252135Z 17012KT 22/16 A2995 RMK A01 T02230161  RH  071%=      5-min Rain = 0
KDMS 252140Z 17012G17KT 22/16 A2995 RMK A01 T02200157  RH  070%=      5-min Rain = 0
KDMS 252145Z 16012KT 22/16 A2995 RMK A01 T02180156  RH  071%=      5-min Rain = 0
KDMS 252150Z 17009KT 22/16 A2994 RMK A01 T02160155  RH  071%=      5-min Rain = 0
KDMS 252155Z 17010KT 21/15 A2995 RMK A01 T02140152  RH  071%=      5-min Rain = 0
KDMS 252200Z 15011KT 21/15 A2994 RMK A01 T02140154  RH  072%=      5-min Rain = 0
KDMS 252205Z 15012KT 21/16 A2994 RMK A01 T02120156  RH  074%=      5-min Rain = 0
KDMS 252210Z 14012KT 21/16 A2994 RMK A01 T02100158  RH  075%=      5-min Rain = 0
KDMS 252215Z 13012KT 21/16 A2995 RMK A01 T02070160  RH  078%=      5-min Rain = 0
KDMS 252220Z 13010KT 20/16 A2995 RMK A01 T02030163  RH  082%=      5-min Rain = 0
KDMS 252225Z 13009KT 20/17 A2995 RMK A01 T02000168  RH  086%=      5-min Rain = 0
KDMS 252230Z 12008KT 20/17 A2994 RMK A01 T01980171  RH  089%=      5-min Rain = 0.01
KDMS 252235Z 12009G14KT 20/18 A2995 RMK A01 T01980175  RH  091%=      5-min Rain = 0
KDMS 252240Z 12010KT 20/18 A2995 RMK A01 T02000177  RH  091%=      5-min Rain = 0
KDMS 252245Z 13013G18KT 21/18 A2995 RMK A01 T02050183  RH  092%=      5-min Rain = 0
KDMS 252250Z 12012G18KT 20/18 A2994 RMK A01 T02040181  RH  091%=      5-min Rain = 0.01
KDMS 252255Z 13011G16KT 20/18 A2995 RMK A01 T02030180  RH  092%=      5-min Rain = 0
KDMS 252300Z 13013KT 20/18 A2995 RMK A01 T02040180  RH  091%=      5-min Rain = 0
KDMS 252305Z 13014KT 20/18 A2994 RMK A01 T02030176  RH  089%=      5-min Rain = 0
KDMS 252310Z 12009KT 20/16 A2993 RMK A01 T02020155  RH  078%=      5-min Rain = 0
KDMS 252315Z 12008KT 21/16 A2994 RMK A01 T02080158  RH  077%=      5-min Rain = 0
KDMS 252320Z 13009KT 21/16 A2994 RMK A01 T02110155  RH  074%=      5-min Rain = 0
KDMS 252325Z 12013G18KT 21/15 A2994 RMK A01 T02070153  RH  074%=      5-min Rain = 0
KDMS 252330Z 12013KT 20/15 A2994 RMK A01 T02000145  RH  074%=      5-min Rain = 0
KDMS 252335Z 12013G18KT 20/15 A2995 RMK A01 T02000148  RH  075%=      5-min Rain = 0
KDMS 252340Z 13015KT 20/15 A2995 RMK A01 T01960152  RH  079%=      5-min Rain = 0
KDMS 252345Z 14020G28KT 19/15 A2997 RMK A01 T01890154  RH  084%=      5-min Rain = 0.02
KDMS 252350Z 16026G32KT 18/15 A2997 RMK A01 T01790154  RH  089%=      5-min Rain = 0.02
KDMS 252355Z 16018G26KT 18/16 A2996 RMK A01 T01760159  RH  094%=      5-min Rain = 0.03
KDMS 260000Z 13016KT 18/16 A2995 RMK A01 T01820164  RH  094%=      5-min Rain = 0
KDMS 260005Z 13011KT 19/17 A2993 RMK A01 T01900166  RH  090%=      5-min Rain = 0
KDMS 260010Z 17014G19KT 20/16 A2994 RMK A01 T02030160  RH  080%=      5-min Rain = 0
KDMS 260015Z 16013G19KT 20/16 A2994 RMK A01 T02010161  RH  082%=      5-min Rain = 0
KDMS 260020Z 16011KT 19/16 A2994 RMK A01 T01920159  RH  085%=      5-min Rain = 0
KDMS 260025Z 15011KT 19/16 A2994 RMK A01 T01880156  RH  086%=      5-min Rain = 0
KDMS 260030Z 13008KT 18/16 A2994 RMK A01 T01830156  RH  088%=      5-min Rain = 0
KDMS 260035Z 13008KT 18/16 A2994 RMK A01 T01810156  RH  089%=      5-min Rain = 0
KDMS 260040Z 12012KT 18/16 A2995 RMK A01 T01820158  RH  090%=      5-min Rain = 0
KDMS 260045Z 12011KT 18/16 A2995 RMK A01 T01830161  RH  091%=      5-min Rain = 0
KDMS 260050Z 13010KT 18/16 A2995 RMK A01 T01840160  RH  090%=      5-min Rain = 0
KDMS 260055Z 12010KT 19/16 A2995 RMK A01 T01850159  RH  089%=      5-min Rain = 0
KDMS 260100Z 12009KT 19/16 A2995 RMK A01 T01860161  RH  090%=      5-min Rain = 0
KDMS 260105Z 12008KT 19/16 A2995 RMK A01 T01860159  RH  089%=      5-min Rain = 0
KDMS 260110Z 12010KT 19/16 A2995 RMK A01 T01860158  RH  087%=      5-min Rain = 0
KDMS 260115Z 12011KT 19/16 A2995 RMK A01 T01860155  RH  086%=      5-min Rain = 0
KDMS 260120Z 12010KT 19/15 A2995 RMK A01 T01850151  RH  084%=      5-min Rain = 0
KDMS 260125Z 11012KT 18/15 A2995 RMK A01 T01840147  RH  083%=      5-min Rain = 0
KDMS 260130Z 11012KT 18/15 A2995 RMK A01 T01810147  RH  084%=      5-min Rain = 0
KDMS 260135Z 11011KT 18/15 A2995 RMK A01 T01790146  RH  085%=      5-min Rain = 0
KDMS 260140Z 11010KT 18/15 A2995 RMK A01 T01770147  RH  086%=      5-min Rain = 0
KDMS 260145Z 11010KT 18/15 A2995 RMK A01 T01760146  RH  087%=      5-min Rain = 0
KDMS 260150Z 12010KT 18/14 A2995 RMK A01 T01750142  RH  084%=      5-min Rain = 0
KDMS 260155Z 12010KT 17/14 A2994 RMK A01 T01740140  RH  084%=      5-min Rain = 0
KDMS 260200Z 12010KT 17/14 A2995 RMK A01 T01740140  RH  084%=      5-min Rain = 0
KDMS 260205Z 13010KT 17/14 A2995 RMK A01 T01740141  RH  085%=      5-min Rain = 0
KDMS 260210Z 13010KT 17/14 A2995 RMK A01 T01740143  RH  086%=      5-min Rain = 0
KDMS 260215Z 13011KT 18/15 A2995 RMK A01 T01750145  RH  086%=      5-min Rain = 0
KDMS 260220Z 14010KT 18/15 A2995 RMK A01 T01760146  RH  087%=      5-min Rain = 0
KDMS 260225Z 14010KT 18/15 A2995 RMK A01 T01760147  RH  087%=      5-min Rain = 0
KDMS 260230Z 14011KT 18/15 A2995 RMK A01 T01760149  RH  088%=      5-min Rain = 0
KDMS 260235Z 14012KT 18/15 A2995 RMK A01 T01770152  RH  089%=      5-min Rain = 0
KDMS 260240Z 14012KT 18/16 A2995 RMK A01 T01780155  RH  090%=      5-min Rain = 0
KDMS 260245Z 14013KT 18/16 A2995 RMK A01 T01790157  RH  091%=      5-min Rain = 0
KDMS 260250Z 15013KT 18/16 A2995 RMK A01 T01800159  RH  092%=      5-min Rain = 0
KDMS 260255Z 15013KT 18/16 A2995 RMK A01 T01810161  RH  093%=      5-min Rain = 0
KDMS 260300Z 15014KT 18/16 A2995 RMK A01 T01810162  RH  093%=      5-min Rain = 0
KDMS 260305Z 15014KT 18/16 A2995 RMK A01 T01810163  RH  093%=      5-min Rain = 0
KDMS 260310Z 15014KT 18/16 A2995 RMK A01 T01810163  RH  094%=      5-min Rain = 0
KDMS 260315Z 15013KT 18/16 A2995 RMK A01 T01810163  RH  094%=      5-min Rain = 0
KDMS 260320Z 16013KT 18/16 A2995 RMK A01 T01800163  RH  095%=      5-min Rain = 0
KDMS 260325Z 16013KT 18/16 A2996 RMK A01 T01790163  RH  095%=      5-min Rain = 0
KDMS 260330Z 16013KT 18/17 A2996 RMK A01 T01800165  RH  095%=      5-min Rain = 0
KDMS 260335Z 16013KT 18/17 A2996 RMK A01 T01820166  RH  095%=      5-min Rain = 0
KDMS 260340Z 15013KT 18/17 A2996 RMK A01 T01830168  RH  095%=      5-min Rain = 0
KDMS 260345Z 16013KT 18/17 A2996 RMK A01 T01840168  RH  095%=      5-min Rain = 0
KDMS 260350Z 17012KT 18/17 A2996 RMK A01 T01830168  RH  095%=      5-min Rain = 0
KDMS 260355Z 17012KT 18/17 A2996 RMK A01 T01830168  RH  096%=      5-min Rain = 0
KDMS 260400Z 17012KT 18/17 A2996 RMK A01 T01830168  RH  096%=      5-min Rain = 0
KDMS 260405Z 17013KT 18/17 A2997 RMK A01 T01830169  RH  096%=      5-min Rain = 0
KDMS 260410Z 17012KT 18/17 A2997 RMK A01 T01830168  RH  096%=      5-min Rain = 0
KDMS 260415Z 17011KT 18/17 A2997 RMK A01 T01820168  RH  096%=      5-min Rain = 0
KDMS 260420Z 18011KT 18/17 A2997 RMK A01 T01810167  RH  096%=      5-min Rain = 0
KDMS 260425Z 18011KT 18/17 A2997 RMK A01 T01800167  RH  097%=      5-min Rain = 0
KDMS 260430Z 18011KT 18/17 A2997 RMK A01 T01800167  RH  097%=      5-min Rain = 0
KDMS 260435Z 18011KT 18/17 A2997 RMK A01 T01790167  RH  097%=      5-min Rain = 0
KDMS 260440Z 18011KT 18/17 A2997 RMK A01 T01810168  RH  097%=      5-min Rain = 0
KDMS 260445Z 17011KT 18/17 A2997 RMK A01 T01820169  RH  097%=      5-min Rain = 0
KDMS 260450Z 18011KT 18/17 A2997 RMK A01 T01830169  RH  096%=      5-min Rain = 0
KDMS 260455Z 17012KT 18/17 A2997 RMK A01 T01840169  RH  096%=      5-min Rain = 0

Page generated in 0.0092 seconds.